sensor_id;sensor_type;location;lat;lon;timestamp;pressure;altitude;pressure_sealevel;temperature;humidity
49813;BME280;35706;52.100;5.056;2023-02-21T00:00:36;101994.75;;;7.73;100.00
49813;BME280;35706;52.100;5.056;2023-02-21T00:01:55;101991.28;;;7.72;100.00
49813;BME280;35706;52.100;5.056;2023-02-21T00:03:14;101994.84;;;7.71;100.00
49813;BME280;35706;52.100;5.056;2023-02-21T00:04:33;101994.84;;;7.71;100.00
49813;BME280;35706;52.100;5.056;2023-02-21T00:05:52;101995.50;;;7.75;100.00
49813;BME280;35706;52.100;5.056;2023-02-21T00:07:11;101999.25;;;7.71;100.00
49813;BME280;35706;52.100;5.056;2023-02-21T00:08:30;102001.84;;;7.71;100.00
49813;BME280;35706;52.100;5.056;2023-02-21T00:09:49;102000.84;;;7.73;100.00
49813;BME280;35706;52.100;5.056;2023-02-21T00:11:07;102006.81;;;7.75;100.00
49813;BME280;35706;52.100;5.056;2023-02-21T00:12:26;101998.22;;;7.73;100.00
49813;BME280;35706;52.100;5.056;2023-02-21T00:13:45;102009.44;;;7.75;100.00
49813;BME280;35706;52.100;5.056;2023-02-21T00:15:05;101999.63;;;7.79;100.00
49813;BME280;35706;52.100;5.056;2023-02-21T00:16:23;102002.41;;;7.76;100.00
49813;BME280;35706;52.100;5.056;2023-02-21T00:17:44;102001.59;;;7.75;100.00
49813;BME280;35706;52.100;5.056;2023-02-21T00:19:03;102003.25;;;7.77;100.00
49813;BME280;35706;52.100;5.056;2023-02-21T00:20:22;102000.63;;;7.77;100.00
49813;BME280;35706;52.100;5.056;2023-02-21T00:21:41;102010.47;;;7.73;100.00
49813;BME280;35706;52.100;5.056;2023-02-21T00:23:00;102003.09;;;7.80;100.00
49813;BME280;35706;52.100;5.056;2023-02-21T00:24:19;102009.09;;;7.82;100.00
49813;BME280;35706;52.100;5.056;2023-02-21T00:25:38;102015.69;;;7.73;100.00
49813;BME280;35706;52.100;5.056;2023-02-21T00:26:57;102002.41;;;7.76;100.00
49813;BME280;35706;52.100;5.056;2023-02-21T00:28:16;102006.63;;;7.79;100.00
49813;BME280;35706;52.100;5.056;2023-02-21T00:29:35;102004.13;;;7.77;100.00
49813;BME280;35706;52.100;5.056;2023-02-21T00:30:54;102005.13;;;7.74;100.00
49813;BME280;35706;52.100;5.056;2023-02-21T00:32:13;102003.09;;;7.80;100.00
49813;BME280;35706;52.100;5.056;2023-02-21T00:33:35;101996.16;;;7.79;100.00
49813;BME280;35706;52.100;5.056;2023-02-21T00:34:55;101996.34;;;7.75;100.00
49813;BME280;35706;52.100;5.056;2023-02-21T00:36:17;102006.81;;;7.75;100.00
49813;BME280;35706;52.100;5.056;2023-02-21T00:37:36;102000.63;;;7.77;100.00
49813;BME280;35706;52.100;5.056;2023-02-21T00:38:55;102010.19;;;7.78;100.00
49813;BME280;35706;52.100;5.056;2023-02-21T00:40:14;102002.41;;;7.76;100.00
49813;BME280;35706;52.100;5.056;2023-02-21T00:41:33;102001.59;;;7.75;100.00
49813;BME280;35706;52.100;5.056;2023-02-21T00:42:52;102013.91;;;7.73;100.00
49813;BME280;35706;52.100;5.056;2023-02-21T00:44:12;101999.72;;;7.78;100.00
49813;BME280;35706;52.100;5.056;2023-02-21T00:45:31;101999.81;;;7.76;100.00
49813;BME280;35706;52.100;5.056;2023-02-21T00:46:50;102002.50;;;7.74;100.00
49813;BME280;35706;52.100;5.056;2023-02-21T00:48:09;102002.41;;;7.76;100.00
49813;BME280;35706;52.100;5.056;2023-02-21T00:49:27;101999.06;;;7.74;100.00
49813;BME280;35706;52.100;5.056;2023-02-21T00:50:46;101999.31;;;7.69;100.00
49813;BME280;35706;52.100;5.056;2023-02-21T00:52:05;101997.25;;;7.74;100.00
49813;BME280;35706;52.100;5.056;2023-02-21T00:53:25;101999.25;;;7.71;100.00
49813;BME280;35706;52.100;5.056;2023-02-21T00:54:44;101995.50;;;7.75;100.00
49813;BME280;35706;52.100;5.056;2023-02-21T00:56:03;101990.09;;;7.78;100.00
49813;BME280;35706;52.100;5.056;2023-02-21T00:57:22;101995.50;;;7.75;100.00
49813;BME280;35706;52.100;5.056;2023-02-21T00:58:41;101987.56;;;7.77;100.00
49813;BME280;35706;52.100;5.056;2023-02-21T01:00:01;102002.69;;;7.71;100.00
49813;BME280;35706;52.100;5.056;2023-02-21T01:01:21;101989.59;;;7.71;100.00
49813;BME280;35706;52.100;5.056;2023-02-21T01:02:40;101983.34;;;7.74;100.00
49813;BME280;35706;52.100;5.056;2023-02-21T01:03:59;101983.44;;;7.72;100.00
49813;BME280;35706;52.100;5.056;2023-02-21T01:05:18;101989.59;;;7.71;100.00
49813;BME280;35706;52.100;5.056;2023-02-21T01:06:37;101985.97;;;7.74;100.00
49813;BME280;35706;52.100;5.056;2023-02-21T01:07:55;101986.72;;;7.76;100.00
49813;BME280;35706;52.100;5.056;2023-02-21T01:09:14;101979.88;;;7.73;100.00
49813;BME280;35706;52.100;5.056;2023-02-21T01:10:34;101977.09;;;7.77;100.00
49813;BME280;35706;52.100;5.056;2023-02-21T01:11:52;101972.13;;;7.72;100.00
49813;BME280;35706;52.100;5.056;2023-02-21T01:13:11;101978.94;;;7.74;100.00
49813;BME280;35706;52.100;5.056;2023-02-21T01:14:30;101984.09;;;7.76;100.00
49813;BME280;35706;52.100;5.056;2023-02-21T01:15:49;101985.69;;;7.79;100.00
49813;BME280;35706;52.100;5.056;2023-02-21T01:17:08;101985.69;;;7.79;100.00
49813;BME280;35706;52.100;5.056;2023-02-21T01:18:27;101985.88;;;7.75;100.00
49813;BME280;35706;52.100;5.056;2023-02-21T01:19:46;101975.56;;;7.72;100.00
49813;BME280;35706;52.100;5.056;2023-02-21T01:21:05;101983.19;;;7.77;100.00
49813;BME280;35706;52.100;5.056;2023-02-21T01:22:24;101980.66;;;7.75;100.00
49813;BME280;35706;52.100;5.056;2023-02-21T01:23:43;101982.44;;;7.75;100.00
49813;BME280;35706;52.100;5.056;2023-02-21T01:25:02;101977.75;;;7.80;100.00
49813;BME280;35706;52.100;5.056;2023-02-21T01:26:21;101980.09;;;7.85;100.00
49813;BME280;35706;52.100;5.056;2023-02-21T01:27:40;101980.44;;;7.79;100.00
49813;BME280;35706;52.100;5.056;2023-02-21T01:29:02;101973.28;;;7.82;100.00
49813;BME280;35706;52.100;5.056;2023-02-21T01:30:21;101980.09;;;7.85;100.00
49813;BME280;35706;52.100;5.056;2023-02-21T01:31:40;101971.41;;;7.84;100.00
49813;BME280;35706;52.100;5.056;2023-02-21T01:32:59;101975.72;;;7.85;100.00
49813;BME280;35706;52.100;5.056;2023-02-21T01:34:18;101973.00;;;7.87;100.00
49813;BME280;35706;52.100;5.056;2023-02-21T01:35:37;101971.50;;;7.83;100.00
49813;BME280;35706;52.100;5.056;2023-02-21T01:36:56;101971.13;;;7.89;100.00
49813;BME280;35706;52.100;5.056;2023-02-21T01:38:15;101967.13;;;7.83;100.00
49813;BME280;35706;52.100;5.056;2023-02-21T01:39:34;101960.78;;;7.87;100.00
49813;BME280;35706;52.100;5.056;2023-02-21T01:40:53;101966.09;;;7.86;100.00
49813;BME280;35706;52.100;5.056;2023-02-21T01:42:12;101952.25;;;7.84;100.00
49813;BME280;35706;52.100;5.056;2023-02-21T01:43:30;101953.75;;;7.88;100.00
49813;BME280;35706;52.100;5.056;2023-02-21T01:46:40;101953.00;;;7.86;100.00
49813;BME280;35706;52.100;5.056;2023-02-21T01:47:59;101955.41;;;7.89;100.00
49813;BME280;35706;52.100;5.056;2023-02-21T01:49:20;101948.59;;;7.86;100.00
49813;BME280;35706;52.100;5.056;2023-02-21T01:50:39;101946.66;;;7.90;100.00
49813;BME280;35706;52.100;5.056;2023-02-21T01:51:59;101948.25;;;7.92;100.00
49813;BME280;35706;52.100;5.056;2023-02-21T01:53:24;101948.53;;;7.88;100.00
49813;BME280;35706;52.100;5.056;2023-02-21T01:54:46;101948.25;;;7.92;100.00
49813;BME280;35706;52.100;5.056;2023-02-21T01:56:07;101941.97;;;7.95;100.00
49813;BME280;35706;52.100;5.056;2023-02-21T01:57:27;101945.53;;;7.94;100.00
49813;BME280;35706;52.100;5.056;2023-02-21T01:58:47;101945.78;;;7.89;100.00
49813;BME280;35706;52.100;5.056;2023-02-21T02:00:09;101950.84;;;7.92;100.00
49813;BME280;35706;52.100;5.056;2023-02-21T02:01:50;101949.00;;;7.94;100.00
49813;BME280;35706;52.100;5.056;2023-02-21T02:03:13;101949.75;;;7.97;100.00
49813;BME280;35706;52.100;5.056;2023-02-21T02:04:32;101948.16;;;7.94;100.00
49813;BME280;35706;52.100;5.056;2023-02-21T02:06:06;101947.28;;;7.93;100.00
49813;BME280;35706;52.100;5.056;2023-02-21T02:07:25;101940.66;;;7.88;100.00
49813;BME280;35706;52.100;5.056;2023-02-21T02:08:44;101941.22;;;7.93;100.00
49813;BME280;35706;52.100;5.056;2023-02-21T02:10:04;101941.81;;;7.98;100.00
49813;BME280;35706;52.100;5.056;2023-02-21T02:11:42;101938.31;;;7.98;100.00
49813;BME280;35706;52.100;5.056;2023-02-21T02:13:15;101939.19;;;7.98;100.00
49813;BME280;35706;52.100;5.056;2023-02-21T02:17:05;101942.44;;;8.02;100.00
49813;BME280;35706;52.100;5.056;2023-02-21T02:29:32;101938.22;;;7.99;100.00
49813;BME280;35706;52.100;5.056;2023-02-21T02:38:32;101925.16;;;7.99;100.00
49813;BME280;35706;52.100;5.056;2023-02-21T02:41:07;101930.56;;;7.96;100.00
49813;BME280;35706;52.100;5.056;2023-02-21T02:42:25;101927.75;;;7.99;100.00
49813;BME280;35706;52.100;5.056;2023-02-21T02:43:43;101927.59;;;8.02;100.00
49813;BME280;35706;52.100;5.056;2023-02-21T02:44:52;101931.22;;;8.00;100.00
49813;BME280;35706;52.100;5.056;2023-02-21T02:46:07;101929.47;;;8.00;100.00
49813;BME280;35706;52.100;5.056;2023-02-21T02:47:16;101930.38;;;7.99;100.00
49813;BME280;35706;52.100;5.056;2023-02-21T02:48:29;101934.69;;;8.00;100.00
49813;BME280;35706;52.100;5.056;2023-02-21T02:49:33;101936.44;;;8.00;100.00
49813;BME280;35706;52.100;5.056;2023-02-21T02:50:36;101927.00;;;7.97;100.00
49813;BME280;35706;52.100;5.056;2023-02-21T02:51:38;101930.38;;;7.99;100.00
49813;BME280;35706;52.100;5.056;2023-02-21T02:52:49;101934.13;;;7.95;100.00
49813;BME280;35706;52.100;5.056;2023-02-21T02:53:50;101934.78;;;7.99;100.00
49813;BME280;35706;52.100;5.056;2023-02-21T02:54:58;101932.34;;;7.95;100.00
49813;BME280;35706;52.100;5.056;2023-02-21T02:56:04;101930.66;;;7.94;100.00
49813;BME280;35706;52.100;5.056;2023-02-21T02:57:06;101936.66;;;7.97;100.00
49813;BME280;35706;52.100;5.056;2023-02-21T02:58:10;101926.94;;;7.99;100.00
49813;BME280;35706;52.100;5.056;2023-02-21T02:59:20;101934.78;;;7.99;100.00
49813;BME280;35706;52.100;5.056;2023-02-21T03:00:22;101930.66;;;7.94;100.00
49813;BME280;35706;52.100;5.056;2023-02-21T03:03:15;101934.94;;;7.95;100.00
49813;BME280;35706;52.100;5.056;2023-02-21T03:05:06;101930.94;;;7.90;100.00
49813;BME280;35706;52.100;5.056;2023-02-21T03:08:39;101927.09;;;7.95;100.00
49813;BME280;35706;52.100;5.056;2023-02-21T03:12:18;101918.41;;;7.95;100.00
49813;BME280;35706;52.100;5.056;2023-02-21T03:15:00;101919.59;;;7.89;100.00
49813;BME280;35706;52.100;5.056;2023-02-21T03:16:15;101925.72;;;7.90;100.00
49813;BME280;35706;52.100;5.056;2023-02-21T03:17:19;101912.41;;;7.93;100.00
49813;BME280;35706;52.100;5.056;2023-02-21T03:19:08;101914.13;;;7.94;100.00
49813;BME280;35706;52.100;5.056;2023-02-21T03:20:11;101919.81;;;8.01;100.00
49813;BME280;35706;52.100;5.056;2023-02-21T03:21:20;101915.50;;;8.00;100.00
49813;BME280;35706;52.100;5.056;2023-02-21T03:22:23;101919.81;;;8.01;100.00
49813;BME280;35706;52.100;5.056;2023-02-21T03:23:27;101921.31;;;8.05;100.00
49813;BME280;35706;52.100;5.056;2023-02-21T03:24:30;101918.69;;;8.05;100.00
49813;BME280;35706;52.100;5.056;2023-02-21T03:25:33;101919.75;;;8.02;100.00
49813;BME280;35706;52.100;5.056;2023-02-21T03:26:36;101925.81;;;8.03;100.00
49813;BME280;35706;52.100;5.056;2023-02-21T03:27:38;101924.97;;;8.02;100.00
49813;BME280;35706;52.100;5.056;2023-02-21T03:28:40;101923.00;;;8.06;100.00
49813;BME280;35706;52.100;5.056;2023-02-21T03:29:40;101931.69;;;8.06;100.00
49813;BME280;35706;52.100;5.056;2023-02-21T03:30:44;101930.00;;;8.05;100.00
49813;BME280;35706;52.100;5.056;2023-02-21T03:31:54;101934.13;;;8.09;100.00
49813;BME280;35706;52.100;5.056;2023-02-21T03:32:57;101934.22;;;8.08;100.00
49813;BME280;35706;52.100;5.056;2023-02-21T03:33:58;101933.53;;;8.04;100.00
49813;BME280;35706;52.100;5.056;2023-02-21T03:34:58;101937.66;;;8.08;100.00
49813;BME280;35706;52.100;5.056;2023-02-21T03:36:02;101931.22;;;8.00;100.00
49813;BME280;35706;52.100;5.056;2023-02-21T03:37:04;101933.00;;;7.99;100.00
49813;BME280;35706;52.100;5.056;2023-02-21T03:38:04;101933.84;;;8.00;100.00
49813;BME280;35706;52.100;5.056;2023-02-21T03:39:05;101937.13;;;8.03;100.00
49813;BME280;35706;52.100;5.056;2023-02-21T03:40:11;101938.16;;;8.01;100.00
49813;BME280;35706;52.100;5.056;2023-02-21T03:41:13;101933.53;;;8.04;100.00
49813;BME280;35706;52.100;5.056;2023-02-21T03:42:14;101928.50;;;8.01;100.00
49813;BME280;35706;52.100;5.056;2023-02-21T03:43:14;101930.38;;;7.99;100.00
49813;BME280;35706;52.100;5.056;2023-02-21T03:44:15;101922.34;;;8.02;100.00
49813;BME280;35706;52.100;5.056;2023-02-21T03:45:15;101926.09;;;7.98;100.00
49813;BME280;35706;52.100;5.056;2023-02-21T03:46:15;101923.28;;;8.01;100.00
49813;BME280;35706;52.100;5.056;2023-02-21T03:47:18;101918.03;;;8.01;100.00
49813;BME280;35706;52.100;5.056;2023-02-21T03:48:19;101925.16;;;7.99;100.00
49813;BME280;35706;52.100;5.056;2023-02-21T03:49:21;101920.00;;;7.98;100.00
49813;BME280;35706;52.100;5.056;2023-02-21T03:50:22;101920.09;;;7.96;100.00
49813;BME280;35706;52.100;5.056;2023-02-21T03:51:22;101914.59;;;8.01;100.00
49813;BME280;35706;52.100;5.056;2023-02-21T03:52:22;101919.91;;;7.99;100.00
49813;BME280;35706;52.100;5.056;2023-02-21T03:53:23;101913.84;;;7.99;100.00
49813;BME280;35706;52.100;5.056;2023-02-21T03:54:23;101922.34;;;8.02;100.00
49813;BME280;35706;52.100;5.056;2023-02-21T03:55:27;101917.84;;;8.04;100.00
49813;BME280;35706;52.100;5.056;2023-02-21T03:56:27;101916.25;;;8.02;100.00
49813;BME280;35706;52.100;5.056;2023-02-21T03:57:28;101922.25;;;8.04;100.00
49813;BME280;35706;52.100;5.056;2023-02-21T03:58:28;101919.81;;;8.01;100.00
49813;BME280;35706;52.100;5.056;2023-02-21T03:59:28;101922.59;;;7.98;100.00
49813;BME280;35706;52.100;5.056;2023-02-21T04:00:29;101921.69;;;7.99;100.00
49813;BME280;35706;52.100;5.056;2023-02-21T04:01:29;101924.41;;;7.97;100.00
49813;BME280;35706;52.100;5.056;2023-02-21T04:02:29;101920.75;;;8.00;100.00
49813;BME280;35706;52.100;5.056;2023-02-21T04:03:29;101925.34;;;7.96;100.00
49813;BME280;35706;52.100;5.056;2023-02-21T04:04:30;101922.72;;;7.96;100.00
49813;BME280;35706;52.100;5.056;2023-02-21T04:05:30;101921.97;;;7.94;100.00
49813;BME280;35706;52.100;5.056;2023-02-21T04:06:30;101921.78;;;7.97;100.00
49813;BME280;35706;52.100;5.056;2023-02-21T04:07:31;101927.09;;;7.95;100.00
49813;BME280;35706;52.100;5.056;2023-02-21T04:08:31;101920.75;;;8.00;100.00
49813;BME280;35706;52.100;5.056;2023-02-21T04:09:32;101918.88;;;8.02;100.00
49813;BME280;35706;52.100;5.056;2023-02-21T04:10:32;101918.25;;;7.98;100.00
49813;BME280;35706;52.100;5.056;2023-02-21T04:11:32;101923.56;;;7.97;100.00
49813;BME280;35706;52.100;5.056;2023-02-21T04:12:33;101911.50;;;7.94;100.00
49813;BME280;35706;52.100;5.056;2023-02-21T04:13:33;101912.81;;;8.01;100.00
49813;BME280;35706;52.100;5.056;2023-02-21T04:14:33;101913.09;;;7.97;100.00
49813;BME280;35706;52.100;5.056;2023-02-21T04:15:34;101906.16;;;7.95;100.00
49813;BME280;35706;52.100;5.056;2023-02-21T04:16:34;101914.59;;;8.01;100.00
49813;BME280;35706;52.100;5.056;2023-02-21T04:17:34;101904.94;;;8.01;100.00
49813;BME280;35706;52.100;5.056;2023-02-21T04:18:35;101899.63;;;8.03;100.00
49813;BME280;35706;52.100;5.056;2023-02-21T04:19:35;101907.66;;;8.00;100.00
49813;BME280;35706;52.100;5.056;2023-02-21T04:20:36;101902.25;;;8.03;100.00
49813;BME280;35706;52.100;5.056;2023-02-21T04:21:36;101902.31;;;8.01;100.00
49813;BME280;35706;52.100;5.056;2023-02-21T04:22:36;101899.78;;;8.00;100.00
49813;BME280;35706;52.100;5.056;2023-02-21T04:23:36;101904.19;;;7.99;100.00
49813;BME280;35706;52.100;5.056;2023-02-21T04:24:37;101900.75;;;7.99;100.00
49813;BME280;35706;52.100;5.056;2023-02-21T04:25:37;101900.66;;;8.00;100.00
49813;BME280;35706;52.100;5.056;2023-02-21T04:26:37;101904.88;;;8.03;100.00
49813;BME280;35706;52.100;5.056;2023-02-21T04:27:38;101906.06;;;7.97;100.00
49813;BME280;35706;52.100;5.056;2023-02-21T04:28:38;101909.34;;;8.01;100.00
49813;BME280;35706;52.100;5.056;2023-02-21T04:29:38;101905.97;;;7.99;100.00
49813;BME280;35706;52.100;5.056;2023-02-21T04:30:38;101911.38;;;7.95;100.00
49813;BME280;35706;52.100;5.056;2023-02-21T04:31:39;101908.59;;;7.99;100.00
49813;BME280;35706;52.100;5.056;2023-02-21T04:32:39;101909.34;;;8.01;100.00
49813;BME280;35706;52.100;5.056;2023-02-21T04:33:39;101905.91;;;8.00;100.00
49813;BME280;35706;52.100;5.056;2023-02-21T04:34:40;101901.41;;;8.02;100.00
49813;BME280;35706;52.100;5.056;2023-02-21T04:35:40;101904.94;;;8.01;100.00
49813;BME280;35706;52.100;5.056;2023-02-21T04:36:41;101904.28;;;7.98;100.00
49813;BME280;35706;52.100;5.056;2023-02-21T04:37:41;101896.53;;;7.96;100.00
49813;BME280;35706;52.100;5.056;2023-02-21T04:38:44;101894.09;;;7.93;100.00
49813;BME280;35706;52.100;5.056;2023-02-21T04:39:44;101906.91;;;7.98;100.00
49813;BME280;35706;52.100;5.056;2023-02-21T04:40:44;101893.19;;;7.94;100.00
49813;BME280;35706;52.100;5.056;2023-02-21T04:41:44;101906.25;;;7.94;100.00
49813;BME280;35706;52.100;5.056;2023-02-21T04:42:45;101908.03;;;7.93;100.00
49813;BME280;35706;52.100;5.056;2023-02-21T04:43:45;101902.97;;;7.90;100.00
49813;BME280;35706;52.100;5.056;2023-02-21T04:44:45;101908.13;;;7.92;100.00
49813;BME280;35706;52.100;5.056;2023-02-21T04:45:46;101908.13;;;7.92;100.00
49813;BME280;35706;52.100;5.056;2023-02-21T04:46:46;101902.91;;;7.92;100.00
49813;BME280;35706;52.100;5.056;2023-02-21T04:47:46;101903.53;;;7.95;100.00
49813;BME280;35706;52.100;5.056;2023-02-21T04:48:50;101900.75;;;7.99;100.00
49813;BME280;35706;52.100;5.056;2023-02-21T04:49:50;101905.22;;;7.97;100.00
49813;BME280;35706;52.100;5.056;2023-02-21T04:50:51;101902.53;;;7.98;100.00
49813;BME280;35706;52.100;5.056;2023-02-21T04:51:52;101902.69;;;7.95;100.00
49813;BME280;35706;52.100;5.056;2023-02-21T04:52:53;101897.66;;;7.92;100.00
49813;BME280;35706;52.100;5.056;2023-02-21T04:53:54;101898.28;;;7.95;100.00
49813;BME280;35706;52.100;5.056;2023-02-21T04:54:54;101901.78;;;7.96;100.00
49813;BME280;35706;52.100;5.056;2023-02-21T04:55:55;101908.03;;;7.93;100.00
49813;BME280;35706;52.100;5.056;2023-02-21T04:56:55;101901.56;;;7.99;100.00
49813;BME280;35706;52.100;5.056;2023-02-21T04:57:55;101896.44;;;7.98;100.00
49813;BME280;35706;52.100;5.056;2023-02-21T04:58:55;101893.94;;;7.96;100.00
49813;BME280;35706;52.100;5.056;2023-02-21T04:59:58;101898.41;;;7.94;100.00
49813;BME280;35706;52.100;5.056;2023-02-21T05:00:58;101892.97;;;7.97;100.00
49813;BME280;35706;52.100;5.056;2023-02-21T05:01:58;101891.56;;;7.91;100.00
49813;BME280;35706;52.100;5.056;2023-02-21T05:02:59;101891.56;;;7.91;100.00
49813;BME280;35706;52.100;5.056;2023-02-21T05:04:02;101891.47;;;7.93;100.00
49813;BME280;35706;52.100;5.056;2023-02-21T05:05:03;101890.19;;;7.86;100.00
49813;BME280;35706;52.100;5.056;2023-02-21T05:06:06;101894.38;;;7.88;100.00
49813;BME280;35706;52.100;5.056;2023-02-21T05:07:09;101897.00;;;7.88;100.00
49813;BME280;35706;52.100;5.056;2023-02-21T05:08:09;101892.59;;;7.89;100.00
49813;BME280;35706;52.100;5.056;2023-02-21T05:09:10;101890.34;;;7.83;100.00
49813;BME280;35706;52.100;5.056;2023-02-21T05:10:10;101904.94;;;7.87;100.00
49813;BME280;35706;52.100;5.056;2023-02-21T05:11:11;101898.03;;;7.86;100.00
49813;BME280;35706;52.100;5.056;2023-02-21T05:12:11;101898.19;;;7.83;100.00
49813;BME280;35706;52.100;5.056;2023-02-21T05:13:13;101908.50;;;7.86;100.00
49813;BME280;35706;52.100;5.056;2023-02-21T05:14:13;101901.69;;;7.83;100.00
49813;BME280;35706;52.100;5.056;2023-02-21T05:15:14;101901.75;;;7.82;100.00
49813;BME280;35706;52.100;5.056;2023-02-21T05:16:15;101902.69;;;7.81;100.00
49813;BME280;35706;52.100;5.056;2023-02-21T05:17:15;101899.69;;;7.87;100.00
49813;BME280;35706;52.100;5.056;2023-02-21T05:18:16;101900.94;;;7.81;100.00
49813;BME280;35706;52.100;5.056;2023-02-21T05:19:22;101903.63;;;7.80;100.00
49813;BME280;35706;52.100;5.056;2023-02-21T05:20:28;101905.22;;;7.82;100.00
49813;BME280;35706;52.100;5.056;2023-02-21T05:21:33;101897.44;;;7.81;100.00
49813;BME280;35706;52.100;5.056;2023-02-21T05:22:34;101894.38;;;7.88;100.00
49813;BME280;35706;52.100;5.056;2023-02-21T05:23:38;101901.41;;;7.88;100.00
49813;BME280;35706;52.100;5.056;2023-02-21T05:24:42;101886.44;;;7.90;100.00
49813;BME280;35706;52.100;5.056;2023-02-21T05:25:42;101887.28;;;7.90;100.00
49813;BME280;35706;52.100;5.056;2023-02-21T05:26:42;101889.06;;;7.90;100.00
49813;BME280;35706;52.100;5.056;2023-02-21T05:27:43;101886.25;;;7.93;100.00
49813;BME280;35706;52.100;5.056;2023-02-21T05:28:44;101891.47;;;7.93;100.00
49813;BME280;35706;52.100;5.056;2023-02-21T05:29:48;101898.41;;;7.94;100.00
49813;BME280;35706;52.100;5.056;2023-02-21T05:30:48;101891.69;;;7.90;100.00
49813;BME280;35706;52.100;5.056;2023-02-21T05:31:49;101898.50;;;7.92;100.00
49813;BME280;35706;52.100;5.056;2023-02-21T05:32:49;101899.63;;;7.88;100.00
49813;BME280;35706;52.100;5.056;2023-02-21T05:33:50;101904.94;;;7.87;100.00
49813;BME280;35706;52.100;5.056;2023-02-21T05:34:50;101903.72;;;7.92;100.00
49813;BME280;35706;52.100;5.056;2023-02-21T05:35:50;101899.34;;;7.93;100.00
49813;BME280;35706;52.100;5.056;2023-02-21T05:36:53;101902.63;;;7.97;100.00
49813;BME280;35706;52.100;5.056;2023-02-21T05:37:54;101910.56;;;7.95;100.00
49813;BME280;35706;52.100;5.056;2023-02-21T05:38:54;101900.16;;;7.93;100.00
49813;BME280;35706;52.100;5.056;2023-02-21T05:39:55;101907.19;;;7.93;100.00
49813;BME280;35706;52.100;5.056;2023-02-21T05:40:58;101906.44;;;7.91;100.00
49813;BME280;35706;52.100;5.056;2023-02-21T05:41:58;101906.53;;;7.89;100.00
49813;BME280;35706;52.100;5.056;2023-02-21T05:42:59;101899.53;;;7.90;100.00
49813;BME280;35706;52.100;5.056;2023-02-21T05:44:00;101898.88;;;7.86;100.00
49813;BME280;35706;52.100;5.056;2023-02-21T05:45:00;101904.19;;;7.85;100.00
49813;BME280;35706;52.100;5.056;2023-02-21T05:46:01;101900.44;;;7.89;100.00
49813;BME280;35706;52.100;5.056;2023-02-21T05:47:01;101899.63;;;7.88;100.00
49813;BME280;35706;52.100;5.056;2023-02-21T05:48:02;101904.94;;;7.87;100.00
49813;BME280;35706;52.100;5.056;2023-02-21T05:49:03;101906.06;;;7.83;100.00
49813;BME280;35706;52.100;5.056;2023-02-21T05:50:04;101918.22;;;7.84;100.00
49813;BME280;35706;52.100;5.056;2023-02-21T05:51:04;101916.16;;;7.89;100.00
49813;BME280;35706;52.100;5.056;2023-02-21T05:52:05;101915.59;;;7.84;100.00
49813;BME280;35706;52.100;5.056;2023-02-21T05:53:05;101927.38;;;7.91;100.00
49813;BME280;35706;52.100;5.056;2023-02-21T05:54:13;101913.66;;;7.87;100.00
49813;BME280;35706;52.100;5.056;2023-02-21T05:55:14;101918.59;;;7.92;100.00
49813;BME280;35706;52.100;5.056;2023-02-21T05:56:15;101915.31;;;7.88;100.00
49813;BME280;35706;52.100;5.056;2023-02-21T05:57:16;101910.63;;;7.93;100.00
49813;BME280;35706;52.100;5.056;2023-02-21T05:58:16;101911.38;;;7.95;100.00
49813;BME280;35706;52.100;5.056;2023-02-21T05:59:18;101908.69;;;7.97;100.00
49813;BME280;35706;52.100;5.056;2023-02-21T06:00:21;101910.75;;;7.92;100.00
49813;BME280;35706;52.100;5.056;2023-02-21T06:01:24;101898.41;;;7.94;100.00
49813;BME280;35706;52.100;5.056;2023-02-21T06:02:25;101897.84;;;7.89;100.00
49813;BME280;35706;52.100;5.056;2023-02-21T06:03:25;101900.38;;;7.90;100.00
49813;BME280;35706;52.100;5.056;2023-02-21T06:04:25;101903.81;;;7.91;100.00
49813;BME280;35706;52.100;5.056;2023-02-21T06:05:26;101899.63;;;7.88;100.00
49813;BME280;35706;52.100;5.056;2023-02-21T06:06:26;101909.25;;;7.88;100.00
49813;BME280;35706;52.100;5.056;2023-02-21T06:07:26;101910.84;;;7.90;100.00
49813;BME280;35706;52.100;5.056;2023-02-21T06:08:27;101906.53;;;7.89;100.00
49813;BME280;35706;52.100;5.056;2023-02-21T06:09:27;101917.00;;;7.89;100.00
49813;BME280;35706;52.100;5.056;2023-02-21T06:10:29;101915.25;;;7.90;100.00
49813;BME280;35706;52.100;5.056;2023-02-21T06:11:33;101921.50;;;7.87;100.00
49813;BME280;35706;52.100;5.056;2023-02-21T06:12:36;101921.75;;;7.83;100.00
49813;BME280;35706;52.100;5.056;2023-02-21T06:13:36;101925.88;;;7.87;100.00
49813;BME280;35706;52.100;5.056;2023-02-21T06:14:37;101923.44;;;7.84;100.00
49813;BME280;35706;52.100;5.056;2023-02-21T06:15:37;101922.69;;;7.82;100.00
49813;BME280;35706;52.100;5.056;2023-02-21T06:16:38;101920.75;;;7.85;100.00
49813;BME280;35706;52.100;5.056;2023-02-21T06:17:39;101920.16;;;7.80;100.00
49813;BME280;35706;52.100;5.056;2023-02-21T06:18:40;101915.53;;;7.85;100.00
49813;BME280;35706;52.100;5.056;2023-02-21T06:19:40;101916.28;;;7.87;100.00
49813;BME280;35706;52.100;5.056;2023-02-21T06:20:40;101911.88;;;7.88;100.00
49813;BME280;35706;52.100;5.056;2023-02-21T06:21:41;101919.44;;;7.92;100.00
49813;BME280;35706;52.100;5.056;2023-02-21T06:22:42;101911.88;;;7.88;100.00
49813;BME280;35706;52.100;5.056;2023-02-21T06:23:42;101917.28;;;7.85;100.00
49813;BME280;35706;52.100;5.056;2023-02-21T06:24:43;101922.50;;;7.85;100.00
49813;BME280;35706;52.100;5.056;2023-02-21T06:25:43;101919.81;;;7.86;100.00
49813;BME280;35706;52.100;5.056;2023-02-21T06:26:43;101918.97;;;7.86;100.00
49813;BME280;35706;52.100;5.056;2023-02-21T06:27:44;101919.06;;;7.84;100.00
49813;BME280;35706;52.100;5.056;2023-02-21T06:28:44;101912.63;;;7.90;100.00